Terminal Aerodrome Forecast
Issued by NWS Blacksburg, VA

Home | Current Version | Previous Version | Text Only | Print | Product List | Glossary On
Versions: 1 2 3 4 5 6 7 8 9 10 11 12 13 14 15 16 17 18
000
FTUS41 KRNK 230520
TAFDAN
TAF
KDAN 230520Z 2306/2406 06010G18KT 5SM -RA BR BKN005 OVC015
      TEMPO 2306/2310 1SM RA BR
     FM231400 05007KT 4SM -RA BR BKN008 OVC018
     FM231800 03006KT P6SM -SHRA SCT010 OVC020
     FM240100 36005KT P6SM BKN028=

USA.gov is the U.S. government's official web portal to all federal, state and local government web resources and services.